sensor_id;sensor_type;location;lat;lon;timestamp;pressure;altitude;pressure_sealevel;temperature;humidity
35121;BME280;21297;52.008;4.576;2023-05-19T00:01:31;48963.59;;;-143.47;81.60
35121;BME280;21297;52.008;4.576;2023-05-19T00:04:17;48983.25;;;-143.47;80.99
35121;BME280;21297;52.008;4.576;2023-05-19T00:07:03;48928.19;;;-143.47;82.11
35121;BME280;21297;52.008;4.576;2023-05-19T00:09:50;48882.97;;;-143.47;84.72
35121;BME280;21297;52.008;4.576;2023-05-19T00:12:36;48906.56;;;-143.47;84.66
35121;BME280;21297;52.008;4.576;2023-05-19T00:15:22;48920.31;;;-143.47;82.90
35121;BME280;21297;52.008;4.576;2023-05-19T00:18:07;48890.84;;;-143.47;86.34
35121;BME280;21297;52.008;4.576;2023-05-19T00:20:54;48871.16;;;-143.47;87.61
35121;BME280;21297;52.008;4.576;2023-05-19T00:23:40;48890.84;;;-143.47;87.02
35121;BME280;21297;52.008;4.576;2023-05-19T00:26:26;48908.53;;;-143.47;86.34
35121;BME280;21297;52.008;4.576;2023-05-19T00:29:12;48898.69;;;-143.47;86.64
35121;BME280;21297;52.008;4.576;2023-05-19T00:31:57;48888.88;;;-143.47;86.95
35121;BME280;21297;52.008;4.576;2023-05-19T00:34:43;48853.47;;;-143.47;87.44
35121;BME280;21297;52.008;4.576;2023-05-19T00:37:28;48906.56;;;-143.47;87.39
35121;BME280;21297;52.008;4.576;2023-05-19T00:40:15;48930.16;;;-143.47;86.33
35121;BME280;21297;52.008;4.576;2023-05-19T00:43:01;48902.63;;;-143.47;87.47
35121;BME280;21297;52.008;4.576;2023-05-19T00:45:47;48875.09;;;-143.47;87.51
35121;BME280;21297;52.008;4.576;2023-05-19T00:48:32;48910.50;;;-143.47;87.08
35121;BME280;21297;52.008;4.576;2023-05-19T00:51:18;48898.69;;;-143.47;86.13
35121;BME280;21297;52.008;4.576;2023-05-19T00:54:04;48863.31;;;-143.47;87.84
35121;BME280;21297;52.008;4.576;2023-05-19T00:56:50;48902.63;;;-143.47;86.53
35121;BME280;21297;52.008;4.576;2023-05-19T00:59:35;48910.50;;;-143.47;86.00
35121;BME280;21297;52.008;4.576;2023-05-19T01:02:21;48890.84;;;-143.47;87.75
35121;BME280;21297;52.008;4.576;2023-05-19T01:05:07;48877.06;;;-143.47;88.58
35121;BME280;21297;52.008;4.576;2023-05-19T01:07:54;48900.66;;;-143.47;86.50
35121;BME280;21297;52.008;4.576;2023-05-19T01:10:40;48904.59;;;-143.47;88.35
35121;BME280;21297;52.008;4.576;2023-05-19T01:13:27;48890.84;;;-143.47;87.46
35121;BME280;21297;52.008;4.576;2023-05-19T01:16:22;48914.44;;;-143.47;88.39
35121;BME280;21297;52.008;4.576;2023-05-19T01:22:27;48898.69;;;-143.47;86.82
35121;BME280;21297;52.008;4.576;2023-05-19T01:31:16;48871.16;;;-143.47;87.73
35121;BME280;21297;52.008;4.576;2023-05-19T01:34:05;48871.16;;;-143.47;88.26
35121;BME280;21297;52.008;4.576;2023-05-19T01:36:53;48841.66;;;-143.47;89.27
35121;BME280;21297;52.008;4.576;2023-05-19T01:39:41;48861.34;;;-143.47;89.13
35121;BME280;21297;52.008;4.576;2023-05-19T01:42:28;48853.47;;;-143.47;88.78
35121;BME280;21297;52.008;4.576;2023-05-19T01:45:22;48853.47;;;-143.47;89.48
35121;BME280;21297;52.008;4.576;2023-05-19T01:48:08;48845.59;;;-143.47;90.08
35121;BME280;21297;52.008;4.576;2023-05-19T01:50:53;48794.47;;;-143.47;91.27
35121;BME280;21297;52.008;4.576;2023-05-19T01:53:41;48820.03;;;-143.47;90.31
35121;BME280;21297;52.008;4.576;2023-05-19T01:56:41;48843.63;;;-143.47;89.40
35121;BME280;21297;52.008;4.576;2023-05-19T02:02:37;48851.50;;;-143.47;89.00
35121;BME280;21297;52.008;4.576;2023-05-19T02:05:37;48833.81;;;-143.47;89.69
35121;BME280;21297;52.008;4.576;2023-05-19T02:08:56;48843.63;;;-143.47;91.09
35121;BME280;21297;52.008;4.576;2023-05-19T02:12:10;48820.03;;;-143.47;92.56
35121;BME280;21297;52.008;4.576;2023-05-19T02:15:06;48865.28;;;-143.47;93.32
35121;BME280;21297;52.008;4.576;2023-05-19T02:17:56;48810.22;;;-143.47;93.10
35121;BME280;21297;52.008;4.576;2023-05-19T02:20:44;48839.72;;;-143.47;92.14
35121;BME280;21297;52.008;4.576;2023-05-19T02:23:30;48820.03;;;-143.47;92.65
35121;BME280;21297;52.008;4.576;2023-05-19T02:26:15;48827.91;;;-143.47;95.08
35121;BME280;21297;52.008;4.576;2023-05-19T02:29:01;48823.97;;;-143.47;95.21
35121;BME280;21297;52.008;4.576;2023-05-19T02:31:47;48823.97;;;-143.47;94.44
35121;BME280;21297;52.008;4.576;2023-05-19T02:34:32;48825.94;;;-143.47;94.30
35121;BME280;21297;52.008;4.576;2023-05-19T02:37:18;48823.97;;;-143.47;94.62
35121;BME280;21297;52.008;4.576;2023-05-19T02:40:04;48841.66;;;-143.47;92.51
35121;BME280;21297;52.008;4.576;2023-05-19T02:42:50;48833.81;;;-143.47;93.11
35121;BME280;21297;52.008;4.576;2023-05-19T02:45:36;48841.66;;;-143.47;93.37
35121;BME280;21297;52.008;4.576;2023-05-19T02:48:21;48810.22;;;-143.47;94.37
35121;BME280;21297;52.008;4.576;2023-05-19T02:51:07;48871.16;;;-143.47;91.94
35121;BME280;21297;52.008;4.576;2023-05-19T02:53:52;48857.41;;;-143.47;91.23
35121;BME280;21297;52.008;4.576;2023-05-19T02:56:38;48825.94;;;-143.47;93.26
35121;BME280;21297;52.008;4.576;2023-05-19T02:59:24;48863.31;;;-143.47;92.27
35121;BME280;21297;52.008;4.576;2023-05-19T03:02:10;48843.63;;;-143.47;91.65
35121;BME280;21297;52.008;4.576;2023-05-19T03:04:55;48833.81;;;-143.47;92.95
35121;BME280;21297;52.008;4.576;2023-05-19T03:07:41;48833.81;;;-143.47;92.56
35121;BME280;21297;52.008;4.576;2023-05-19T03:10:27;48845.59;;;-143.47;93.98
35121;BME280;21297;52.008;4.576;2023-05-19T03:13:12;48825.94;;;-143.47;95.01
35121;BME280;21297;52.008;4.576;2023-05-19T03:15:58;48792.50;;;-143.47;98.68
35121;BME280;21297;52.008;4.576;2023-05-19T03:18:44;48825.94;;;-143.47;95.92
35121;BME280;21297;52.008;4.576;2023-05-19T03:21:30;48768.91;;;-143.47;96.57
35121;BME280;21297;52.008;4.576;2023-05-19T03:24:16;48820.03;;;-143.47;98.78
35121;BME280;21297;52.008;4.576;2023-05-19T03:27:03;48806.28;;;-143.47;98.48
35121;BME280;21297;52.008;4.576;2023-05-19T03:29:50;48820.03;;;-143.47;100.00
35121;BME280;21297;52.008;4.576;2023-05-19T03:32:37;48814.16;;;-143.47;100.00
35121;BME280;21297;52.008;4.576;2023-05-19T03:35:22;48800.38;;;-143.47;100.00
35121;BME280;21297;52.008;4.576;2023-05-19T03:38:08;48816.09;;;-143.47;100.00
35121;BME280;21297;52.008;4.576;2023-05-19T03:40:54;48812.19;;;-143.47;100.00
35121;BME280;21297;52.008;4.576;2023-05-19T03:43:39;48837.75;;;-143.47;98.93
35121;BME280;21297;52.008;4.576;2023-05-19T03:46:25;48831.84;;;-143.47;99.26
35121;BME280;21297;52.008;4.576;2023-05-19T03:49:11;48776.78;;;-143.47;100.00
35121;BME280;21297;52.008;4.576;2023-05-19T03:51:58;48780.72;;;-143.47;100.00
35121;BME280;21297;52.008;4.576;2023-05-19T03:54:43;48788.59;;;-143.47;100.00
35121;BME280;21297;52.008;4.576;2023-05-19T03:57:29;48790.53;;;-143.47;100.00
35121;BME280;21297;52.008;4.576;2023-05-19T04:00:15;48796.44;;;-143.47;99.58
35121;BME280;21297;52.008;4.576;2023-05-19T04:03:01;48790.53;;;-143.47;98.57
35121;BME280;21297;52.008;4.576;2023-05-19T04:05:47;48808.25;;;-143.47;99.17
35121;BME280;21297;52.008;4.576;2023-05-19T04:08:32;48764.97;;;-143.47;100.00
35121;BME280;21297;52.008;4.576;2023-05-19T04:11:18;48788.59;;;-143.47;100.00
35121;BME280;21297;52.008;4.576;2023-05-19T04:14:07;48825.94;;;-143.47;100.00
35121;BME280;21297;52.008;4.576;2023-05-19T04:16:53;48780.72;;;-143.47;100.00
35121;BME280;21297;52.008;4.576;2023-05-19T04:19:39;48820.03;;;-143.47;99.51
35121;BME280;21297;52.008;4.576;2023-05-19T04:22:25;48851.50;;;-143.47;100.00
35121;BME280;21297;52.008;4.576;2023-05-19T04:25:11;48804.31;;;-143.47;100.00
35121;BME280;21297;52.008;4.576;2023-05-19T04:27:56;48843.63;;;-143.47;100.00
35121;BME280;21297;52.008;4.576;2023-05-19T04:30:42;48802.34;;;-143.47;100.00
35121;BME280;21297;52.008;4.576;2023-05-19T04:33:30;48770.88;;;-143.47;100.00
35121;BME280;21297;52.008;4.576;2023-05-19T04:36:18;48812.19;;;-143.47;100.00
35121;BME280;21297;52.008;4.576;2023-05-19T04:39:06;48823.97;;;-143.47;100.00
35121;BME280;21297;52.008;4.576;2023-05-19T04:41:54;48853.47;;;-143.47;100.00
35121;BME280;21297;52.008;4.576;2023-05-19T04:44:40;48823.97;;;-143.47;100.00
35121;BME280;21297;52.008;4.576;2023-05-19T04:47:26;48892.78;;;-143.47;100.00
35121;BME280;21297;52.008;4.576;2023-05-19T04:50:12;48890.84;;;-143.47;96.92
35121;BME280;21297;52.008;4.576;2023-05-19T04:52:58;48855.44;;;-143.47;98.22
35121;BME280;21297;52.008;4.576;2023-05-19T04:55:44;48914.44;;;-143.47;96.83
35121;BME280;21297;52.008;4.576;2023-05-19T04:58:29;48888.88;;;-143.47;99.15
35121;BME280;21297;52.008;4.576;2023-05-19T05:01:15;48867.22;;;-143.47;99.81
35121;BME280;21297;52.008;4.576;2023-05-19T05:04:01;48882.97;;;-143.47;100.00
35121;BME280;21297;52.008;4.576;2023-05-19T05:06:46;48930.16;;;-143.47;97.73
35121;BME280;21297;52.008;4.576;2023-05-19T05:09:33;48908.53;;;-143.47;94.99
35121;BME280;21297;52.008;4.576;2023-05-19T05:12:20;48906.56;;;-143.47;97.87
35121;BME280;21297;52.008;4.576;2023-05-19T05:15:06;48930.16;;;-143.47;98.80
35121;BME280;21297;52.008;4.576;2023-05-19T05:17:52;48912.47;;;-143.47;98.21
35121;BME280;21297;52.008;4.576;2023-05-19T05:20:38;48886.91;;;-143.47;97.82
35121;BME280;21297;52.008;4.576;2023-05-19T05:23:24;48924.25;;;-143.47;96.49
35121;BME280;21297;52.008;4.576;2023-05-19T05:26:16;48894.75;;;-143.47;97.82
35121;BME280;21297;52.008;4.576;2023-05-19T05:29:03;48981.28;;;-143.47;94.83
35121;BME280;21297;52.008;4.576;2023-05-19T05:31:48;48977.34;;;-143.47;94.29
35121;BME280;21297;52.008;4.576;2023-05-19T05:34:34;48975.38;;;-143.47;94.62
35121;BME280;21297;52.008;4.576;2023-05-19T05:37:22;48973.41;;;-143.47;94.62
35121;BME280;21297;52.008;4.576;2023-05-19T05:40:08;48979.31;;;-143.47;93.71
35121;BME280;21297;52.008;4.576;2023-05-19T05:42:54;48949.81;;;-143.47;95.76
35121;BME280;21297;52.008;4.576;2023-05-19T05:45:40;48969.50;;;-143.47;94.60
35121;BME280;21297;52.008;4.576;2023-05-19T05:48:25;48977.34;;;-143.47;94.42
35121;BME280;21297;52.008;4.576;2023-05-19T05:51:11;49012.75;;;-143.47;93.87
35121;BME280;21297;52.008;4.576;2023-05-19T05:53:58;49008.81;;;-143.47;92.70
35121;BME280;21297;52.008;4.576;2023-05-19T05:56:45;49008.81;;;-143.47;90.71
35121;BME280;21297;52.008;4.576;2023-05-19T05:59:30;49028.47;;;-143.47;90.28
35121;BME280;21297;52.008;4.576;2023-05-19T06:02:18;49079.63;;;-143.47;89.43
35121;BME280;21297;52.008;4.576;2023-05-19T06:05:04;49018.66;;;-143.47;88.45
35121;BME280;21297;52.008;4.576;2023-05-19T06:07:50;49028.47;;;-143.47;89.00
35121;BME280;21297;52.008;4.576;2023-05-19T06:10:35;49067.81;;;-143.47;88.06
35121;BME280;21297;52.008;4.576;2023-05-19T06:13:23;49116.97;;;-143.47;85.60
35121;BME280;21297;52.008;4.576;2023-05-19T06:16:10;49111.06;;;-143.47;83.50
35121;BME280;21297;52.008;4.576;2023-05-19T06:18:55;49142.53;;;-143.47;83.57
35121;BME280;21297;52.008;4.576;2023-05-19T06:21:43;49138.59;;;-143.47;81.86
35121;BME280;21297;52.008;4.576;2023-05-19T06:24:28;49134.66;;;-143.47;81.35
35121;BME280;21297;52.008;4.576;2023-05-19T06:27:14;49170.06;;;-143.47;80.62
35121;BME280;21297;52.008;4.576;2023-05-19T06:29:59;49181.88;;;-143.47;81.11
35121;BME280;21297;52.008;4.576;2023-05-19T06:32:45;49217.28;;;-143.47;79.10
35121;BME280;21297;52.008;4.576;2023-05-19T06:35:31;49268.41;;;-143.47;77.63
35121;BME280;21297;52.008;4.576;2023-05-19T06:38:16;49223.16;;;-143.47;78.04
35121;BME280;21297;52.008;4.576;2023-05-19T06:41:02;49136.63;;;-143.47;78.34
35121;BME280;21297;52.008;4.576;2023-05-19T06:43:48;49181.88;;;-143.47;78.58
35121;BME280;21297;52.008;4.576;2023-05-19T06:46:33;49197.59;;;-143.47;78.25
35121;BME280;21297;52.008;4.576;2023-05-19T06:49:19;49225.13;;;-143.47;78.04
35121;BME280;21297;52.008;4.576;2023-05-19T06:52:05;49297.91;;;-143.47;77.72
35121;BME280;21297;52.008;4.576;2023-05-19T06:54:50;49329.38;;;-143.47;75.06
35121;BME280;21297;52.008;4.576;2023-05-19T06:57:36;49284.13;;;-143.47;73.78
35121;BME280;21297;52.008;4.576;2023-05-19T07:00:22;49331.31;;;-143.47;72.84
35121;BME280;21297;52.008;4.576;2023-05-19T07:03:08;49311.66;;;-143.47;72.67
35121;BME280;21297;52.008;4.576;2023-05-19T07:05:54;49274.31;;;-143.47;71.97
35121;BME280;21297;52.008;4.576;2023-05-19T07:08:39;49280.19;;;-143.47;72.83
35121;BME280;21297;52.008;4.576;2023-05-19T07:11:25;49299.88;;;-143.47;72.74
35121;BME280;21297;52.008;4.576;2023-05-19T07:14:11;49319.53;;;-143.47;72.41
35121;BME280;21297;52.008;4.576;2023-05-19T07:16:56;49364.75;;;-143.47;70.63
35121;BME280;21297;52.008;4.576;2023-05-19T07:19:42;49394.25;;;-143.47;66.99
35121;BME280;21297;52.008;4.576;2023-05-19T07:22:28;49441.47;;;-143.47;68.53
35121;BME280;21297;52.008;4.576;2023-05-19T07:25:14;49384.44;;;-143.47;69.39
35121;BME280;21297;52.008;4.576;2023-05-19T07:28:00;49345.09;;;-143.47;68.64
35121;BME280;21297;52.008;4.576;2023-05-19T07:30:46;49378.53;;;-143.47;67.65
35121;BME280;21297;52.008;4.576;2023-05-19T07:33:31;49382.47;;;-143.47;68.24
35121;BME280;21297;52.008;4.576;2023-05-19T07:36:17;49417.88;;;-143.47;66.94
35121;BME280;21297;52.008;4.576;2023-05-19T07:39:02;49417.88;;;-143.47;66.48
35121;BME280;21297;52.008;4.576;2023-05-19T07:41:48;49417.88;;;-143.47;66.45
35121;BME280;21297;52.008;4.576;2023-05-19T07:44:37;49459.16;;;-143.47;64.55
35121;BME280;21297;52.008;4.576;2023-05-19T07:47:24;49508.31;;;-143.47;64.66
35121;BME280;21297;52.008;4.576;2023-05-19T07:50:09;49500.47;;;-143.47;64.18
35121;BME280;21297;52.008;4.576;2023-05-19T07:52:55;49435.56;;;-143.47;65.26
35121;BME280;21297;52.008;4.576;2023-05-19T07:55:41;49417.88;;;-143.47;64.30
35121;BME280;21297;52.008;4.576;2023-05-19T07:58:26;49447.38;;;-143.47;63.82
35121;BME280;21297;52.008;4.576;2023-05-19T08:01:12;49524.06;;;-143.47;63.96
35121;BME280;21297;52.008;4.576;2023-05-19T08:03:58;49514.22;;;-143.47;62.21
35121;BME280;21297;52.008;4.576;2023-05-19T08:06:44;49510.28;;;-143.47;63.73
35121;BME280;21297;52.008;4.576;2023-05-19T08:09:29;49579.13;;;-143.47;62.64
35121;BME280;21297;52.008;4.576;2023-05-19T08:12:15;49636.16;;;-143.47;59.68
35121;BME280;21297;52.008;4.576;2023-05-19T08:15:01;49567.34;;;-143.47;58.04
35121;BME280;21297;52.008;4.576;2023-05-19T08:17:46;49649.94;;;-143.47;58.51
35121;BME280;21297;52.008;4.576;2023-05-19T08:20:32;49653.88;;;-143.47;59.00
35121;BME280;21297;52.008;4.576;2023-05-19T08:23:18;49730.56;;;-143.47;58.07
35121;BME280;21297;52.008;4.576;2023-05-19T08:26:04;49803.34;;;-143.47;57.23
35121;BME280;21297;52.008;4.576;2023-05-19T08:28:49;49795.47;;;-143.47;55.73
35121;BME280;21297;52.008;4.576;2023-05-19T08:31:35;49807.28;;;-143.47;56.63
35121;BME280;21297;52.008;4.576;2023-05-19T08:34:21;49823.00;;;-143.47;54.84
35121;BME280;21297;52.008;4.576;2023-05-19T08:37:07;49830.88;;;-143.47;55.09
35121;BME280;21297;52.008;4.576;2023-05-19T08:39:52;49813.19;;;-143.47;54.93
35121;BME280;21297;52.008;4.576;2023-05-19T08:42:38;49720.75;;;-143.47;55.79
35121;BME280;21297;52.008;4.576;2023-05-19T08:45:24;49734.50;;;-143.47;54.55
35121;BME280;21297;52.008;4.576;2023-05-19T08:48:11;49830.88;;;-143.47;53.36
35121;BME280;21297;52.008;4.576;2023-05-19T08:51:19;49889.88;;;-143.47;52.25
35121;BME280;21297;52.008;4.576;2023-05-19T08:54:14;49866.28;;;-143.47;49.54
35121;BME280;21297;52.008;4.576;2023-05-19T08:57:00;49858.41;;;-143.47;51.02
35121;BME280;21297;52.008;4.576;2023-05-19T08:59:46;49838.75;;;-143.47;52.47
35121;BME280;21297;52.008;4.576;2023-05-19T09:02:35;49885.94;;;-143.47;51.67
35121;BME280;21297;52.008;4.576;2023-05-19T09:05:22;49927.25;;;-143.47;49.73
35121;BME280;21297;52.008;4.576;2023-05-19T09:08:08;50043.31;;;-143.47;48.63
35121;BME280;21297;52.008;4.576;2023-05-19T09:10:53;49868.25;;;-143.47;49.59
35121;BME280;21297;52.008;4.576;2023-05-19T09:13:39;49836.78;;;-143.47;50.14
35121;BME280;21297;52.008;4.576;2023-05-19T09:16:25;49968.56;;;-143.47;49.53
35121;BME280;21297;52.008;4.576;2023-05-19T09:19:12;49972.50;;;-143.47;47.15
35121;BME280;21297;52.008;4.576;2023-05-19T09:22:00;50027.56;;;-143.47;46.69
35121;BME280;21297;52.008;4.576;2023-05-19T09:24:49;50106.25;;;-143.47;47.84
35121;BME280;21297;52.008;4.576;2023-05-19T09:27:35;50092.47;;;-143.47;46.46
35121;BME280;21297;52.008;4.576;2023-05-19T09:30:21;49915.47;;;-143.47;47.73
35121;BME280;21297;52.008;4.576;2023-05-19T09:33:08;49866.28;;;-143.47;49.23
35121;BME280;21297;52.008;4.576;2023-05-19T09:35:54;49925.28;;;-143.47;48.44
35121;BME280;21297;52.008;4.576;2023-05-19T09:38:44;49966.59;;;-143.47;46.19
35121;BME280;21297;52.008;4.576;2023-05-19T09:41:29;50064.94;;;-143.47;44.02
35121;BME280;21297;52.008;4.576;2023-05-19T09:44:25;50039.38;;;-143.47;44.86
35121;BME280;21297;52.008;4.576;2023-05-19T09:47:13;50027.56;;;-143.47;45.62
35121;BME280;21297;52.008;4.576;2023-05-19T09:50:01;50043.31;;;-143.47;43.59
35121;BME280;21297;52.008;4.576;2023-05-19T09:52:46;50013.81;;;-143.47;44.78
35121;BME280;21297;52.008;4.576;2023-05-19T09:55:33;50145.59;;;-143.47;44.38
35121;BME280;21297;52.008;4.576;2023-05-19T09:58:18;50055.09;;;-143.47;44.99
35121;BME280;21297;52.008;4.576;2023-05-19T10:01:05;49884.00;;;-143.47;45.60
35121;BME280;21297;52.008;4.576;2023-05-19T10:03:51;49844.66;;;-143.47;45.80
35121;BME280;21297;52.008;4.576;2023-05-19T10:06:38;50011.84;;;-143.47;45.91
35121;BME280;21297;52.008;4.576;2023-05-19T10:09:25;50039.38;;;-143.47;45.58
35121;BME280;21297;52.008;4.576;2023-05-19T10:12:11;50015.78;;;-143.47;45.35
35121;BME280;21297;52.008;4.576;2023-05-19T10:14:58;49976.44;;;-143.47;45.04
35121;BME280;21297;52.008;4.576;2023-05-19T10:17:44;50137.72;;;-143.47;44.64
35121;BME280;21297;52.008;4.576;2023-05-19T10:20:30;50092.47;;;-143.47;43.41
35121;BME280;21297;52.008;4.576;2023-05-19T10:23:17;50035.44;;;-143.47;42.53
35121;BME280;21297;52.008;4.576;2023-05-19T10:26:04;50021.66;;;-143.47;44.01
35121;BME280;21297;52.008;4.576;2023-05-19T10:28:51;50082.66;;;-143.47;42.32
35121;BME280;21297;52.008;4.576;2023-05-19T10:31:38;50251.81;;;-143.47;41.15
35121;BME280;21297;52.008;4.576;2023-05-19T10:46:41;50259.69;;;-143.47;39.73
35121;BME280;21297;52.008;4.576;2023-05-19T10:49:27;50169.19;;;-143.47;39.37
35121;BME280;21297;52.008;4.576;2023-05-19T10:52:22;50155.44;;;-143.47;38.98
35121;BME280;21297;52.008;4.576;2023-05-19T10:55:11;50165.25;;;-143.47;40.07
35121;BME280;21297;52.008;4.576;2023-05-19T10:58:01;50169.19;;;-143.47;40.56
35121;BME280;21297;52.008;4.576;2023-05-19T11:00:59;50149.53;;;-143.47;41.23
35121;BME280;21297;52.008;4.576;2023-05-19T11:03:24;50204.59;;;-143.47;41.41
35121;BME280;21297;52.008;4.576;2023-05-19T11:05:50;50318.69;;;-143.47;39.75
35121;BME280;21297;52.008;4.576;2023-05-19T11:08:30;50259.69;;;-143.47;39.79
35121;BME280;21297;52.008;4.576;2023-05-19T11:10:56;50371.81;;;-143.47;39.57
35121;BME280;21297;52.008;4.576;2023-05-19T11:13:36;50369.84;;;-143.47;39.00
35121;BME280;21297;52.008;4.576;2023-05-19T11:16:06;50322.63;;;-143.47;40.57
35121;BME280;21297;52.008;4.576;2023-05-19T11:18:53;50279.34;;;-143.47;40.56
35121;BME280;21297;52.008;4.576;2023-05-19T11:24:42;50428.84;;;-143.47;38.80
35121;BME280;21297;52.008;4.576;2023-05-19T11:27:34;50275.41;;;-143.47;39.25
35121;BME280;21297;52.008;4.576;2023-05-19T11:30:22;50497.69;;;-143.47;40.05
35121;BME280;21297;52.008;4.576;2023-05-19T11:33:08;50464.25;;;-143.47;37.36
35121;BME280;21297;52.008;4.576;2023-05-19T11:35:55;50761.31;;;-143.47;36.61
35121;BME280;21297;52.008;4.576;2023-05-19T11:38:44;50635.41;;;-143.47;37.52
35121;BME280;21297;52.008;4.576;2023-05-19T11:41:29;50389.50;;;-143.47;40.72
35121;BME280;21297;52.008;4.576;2023-05-19T11:44:15;50287.22;;;-143.47;41.43
35121;BME280;21297;52.008;4.576;2023-05-19T11:47:01;50208.53;;;-143.47;43.29
35121;BME280;21297;52.008;4.576;2023-05-19T11:49:47;50127.88;;;-143.47;42.44
35121;BME280;21297;52.008;4.576;2023-05-19T11:52:33;50247.88;;;-143.47;39.06
35121;BME280;21297;52.008;4.576;2023-05-19T11:55:19;50395.41;;;-143.47;39.56
35121;BME280;21297;52.008;4.576;2023-05-19T11:58:08;50214.44;;;-143.47;40.68
35121;BME280;21297;52.008;4.576;2023-05-19T12:00:54;50192.81;;;-143.47;40.10
35121;BME280;21297;52.008;4.576;2023-05-19T12:03:40;50277.38;;;-143.47;40.22
35121;BME280;21297;52.008;4.576;2023-05-19T12:06:26;50310.81;;;-143.47;39.38
35121;BME280;21297;52.008;4.576;2023-05-19T12:09:13;50299.03;;;-143.47;39.21
35121;BME280;21297;52.008;4.576;2023-05-19T12:11:59;50401.31;;;-143.47;39.99
35121;BME280;21297;52.008;4.576;2023-05-19T12:14:46;50507.53;;;-143.47;38.37
35121;BME280;21297;52.008;4.576;2023-05-19T12:17:33;50428.84;;;-143.47;39.42
35121;BME280;21297;52.008;4.576;2023-05-19T12:20:19;50413.13;;;-143.47;39.26
35121;BME280;21297;52.008;4.576;2023-05-19T12:23:05;50243.94;;;-143.47;41.58
35121;BME280;21297;52.008;4.576;2023-05-19T12:25:50;50220.34;;;-143.47;40.50
35121;BME280;21297;52.008;4.576;2023-05-19T12:28:37;50295.09;;;-143.47;41.02
35121;BME280;21297;52.008;4.576;2023-05-19T12:31:22;50316.72;;;-143.47;40.63
35121;BME280;21297;52.008;4.576;2023-05-19T12:34:11;50452.47;;;-143.47;39.01
35121;BME280;21297;52.008;4.576;2023-05-19T12:36:57;50409.19;;;-143.47;38.66
35121;BME280;21297;52.008;4.576;2023-05-19T12:39:43;50367.88;;;-143.47;39.02
35121;BME280;21297;52.008;4.576;2023-05-19T12:42:29;50326.56;;;-143.47;39.73
35121;BME280;21297;52.008;4.576;2023-05-19T12:45:20;50464.25;;;-143.47;39.09
35121;BME280;21297;52.008;4.576;2023-05-19T12:48:13;50472.13;;;-143.47;39.43
35121;BME280;21297;52.008;4.576;2023-05-19T12:51:02;50377.72;;;-143.47;39.81
35121;BME280;21297;52.008;4.576;2023-05-19T12:53:49;50436.72;;;-143.47;38.84
35121;BME280;21297;52.008;4.576;2023-05-19T12:56:35;50236.06;;;-143.47;39.50
35121;BME280;21297;52.008;4.576;2023-05-19T12:59:24;50243.94;;;-143.47;40.03
35121;BME280;21297;52.008;4.576;2023-05-19T13:02:11;50153.47;;;-143.47;40.95
35121;BME280;21297;52.008;4.576;2023-05-19T13:04:57;50265.59;;;-143.47;40.51
35121;BME280;21297;52.008;4.576;2023-05-19T13:07:54;50265.59;;;-143.47;41.43
35121;BME280;21297;52.008;4.576;2023-05-19T13:10:41;50395.41;;;-143.47;40.08
35121;BME280;21297;52.008;4.576;2023-05-19T13:13:28;50544.91;;;-143.47;39.08
35121;BME280;21297;52.008;4.576;2023-05-19T13:16:13;50554.75;;;-143.47;38.38
35121;BME280;21297;52.008;4.576;2023-05-19T13:18:59;50535.09;;;-143.47;37.46
35121;BME280;21297;52.008;4.576;2023-05-19T13:21:45;50399.34;;;-143.47;39.45
35121;BME280;21297;52.008;4.576;2023-05-19T13:24:36;50501.63;;;-143.47;39.03
35121;BME280;21297;52.008;4.576;2023-05-19T13:27:22;50527.22;;;-143.47;38.17
35121;BME280;21297;52.008;4.576;2023-05-19T13:30:09;50513.44;;;-143.47;37.27
35121;BME280;21297;52.008;4.576;2023-05-19T13:32:55;50625.56;;;-143.47;37.55
35121;BME280;21297;52.008;4.576;2023-05-19T13:35:41;50556.72;;;-143.47;38.46
35121;BME280;21297;52.008;4.576;2023-05-19T13:38:27;50436.72;;;-143.47;38.79
35121;BME280;21297;52.008;4.576;2023-05-19T13:41:14;50513.44;;;-143.47;38.21
35121;BME280;21297;52.008;4.576;2023-05-19T13:44:00;50499.66;;;-143.47;38.20
35121;BME280;21297;52.008;4.576;2023-05-19T13:46:45;50515.41;;;-143.47;37.41
35121;BME280;21297;52.008;4.576;2023-05-19T13:49:31;50590.16;;;-143.47;36.96
35121;BME280;21297;52.008;4.576;2023-05-19T13:52:17;50672.78;;;-143.47;36.86
35121;BME280;21297;52.008;4.576;2023-05-19T13:55:04;50539.00;;;-143.47;37.08
35121;BME280;21297;52.008;4.576;2023-05-19T13:57:50;50428.84;;;-143.47;38.15
35121;BME280;21297;52.008;4.576;2023-05-19T14:00:36;50478.03;;;-143.47;38.27
35121;BME280;21297;52.008;4.576;2023-05-19T14:03:21;50499.66;;;-143.47;37.20
35121;BME280;21297;52.008;4.576;2023-05-19T14:06:07;50605.91;;;-143.47;36.88
35121;BME280;21297;52.008;4.576;2023-05-19T14:08:53;50554.75;;;-143.47;36.52
35121;BME280;21297;52.008;4.576;2023-05-19T14:11:39;50609.84;;;-143.47;36.14
35121;BME280;21297;52.008;4.576;2023-05-19T14:14:24;50712.13;;;-143.47;37.03
35121;BME280;21297;52.008;4.576;2023-05-19T14:17:10;50623.59;;;-143.47;36.72
35121;BME280;21297;52.008;4.576;2023-05-19T14:19:56;50718.03;;;-143.47;35.91
35121;BME280;21297;52.008;4.576;2023-05-19T14:22:41;50664.91;;;-143.47;36.61
35121;BME280;21297;52.008;4.576;2023-05-19T14:25:27;50574.44;;;-143.47;36.21
35121;BME280;21297;52.008;4.576;2023-05-19T14:28:13;50786.91;;;-143.47;36.37
35121;BME280;21297;52.008;4.576;2023-05-19T14:30:58;50782.97;;;-143.47;35.72
35121;BME280;21297;52.008;4.576;2023-05-19T14:33:44;50922.63;;;-143.47;35.32
35121;BME280;21297;52.008;4.576;2023-05-19T14:36:30;50956.09;;;-143.47;35.86
35121;BME280;21297;52.008;4.576;2023-05-19T14:39:15;50763.28;;;-143.47;35.92
35121;BME280;21297;52.008;4.576;2023-05-19T14:42:01;50859.69;;;-143.47;36.32
35121;BME280;21297;52.008;4.576;2023-05-19T14:44:47;50887.22;;;-143.47;35.74
35121;BME280;21297;52.008;4.576;2023-05-19T14:47:32;50688.53;;;-143.47;36.36